Time;durP1;ratioP1;P1;durP2;ratioP2;P2;SDS_P1;SDS_P2;PMS_P1;PMS_P2;Temp;Humidity;BMP_temperature;BMP_pressure;BME280_temperature;BME280_humidity;BME280_pressure;Samples;Min_cycle;Max_cycle;Signal;HPM_P1;HPM_P2
2023/10/11 00:00:39;;;;;;;0.40;0.40;;;16.20;99.90;;;;;;5094029;28;20456;-75
2023/10/11 00:03:13;;;;;;;;;;;16.10;99.90;;;;;;5094756;28;20040;-75
2023/10/11 00:05:40;;;;;;;1.20;1.10;;;16.10;99.90;;;;;;5093952;28;19923;-75
2023/10/11 00:08:07;;;;;;;0.50;0.50;;;16.00;99.90;;;;;;5093992;28;20055;-75
2023/10/11 00:10:42;;;;;;;0.40;0.40;;;16.20;99.90;;;;;;5093833;28;20051;-75
2023/10/11 00:13:12;;;;;;;0.38;0.30;;;16.10;99.90;;;;;;5093091;28;20052;-73
2023/10/11 00:15:38;;;;;;;0.80;0.75;;;16.10;99.90;;;;;;5093885;28;20511;-75
2023/10/11 00:18:05;;;;;;;0.40;0.40;;;16.10;99.90;;;;;;5092854;28;20040;-75
2023/10/11 00:23:05;;;;;;;0.52;0.52;;;16.10;99.90;;;;;;5093691;28;20052;-74
2023/10/11 00:25:31;;;;;;;0.50;0.50;;;16.10;99.90;;;;;;5093617;28;20047;-75
2023/10/11 00:27:58;;;;;;;0.50;0.50;;;16.10;99.90;;;;;;5093662;28;20036;-76
2023/10/11 00:30:30;;;;;;;0.60;0.60;;;16.10;99.90;;;;;;5093969;28;20098;-75
2023/10/11 00:32:56;;;;;;;0.65;0.52;;;16.00;99.90;;;;;;5093552;28;20071;-74
2023/10/11 00:35:26;;;;;;;0.50;0.50;;;16.00;99.90;;;;;;5093544;28;20040;-74
2023/10/11 00:37:53;;;;;;;0.85;0.85;;;16.00;99.90;;;;;;5093522;28;20067;-75
2023/10/11 00:40:25;;;;;;;0.80;0.80;;;16.00;99.90;;;;;;5096468;28;20108;-75
2023/10/11 00:42:54;;;;;;;0.40;0.40;;;16.00;99.90;;;;;;5097977;28;20036;-76
2023/10/11 00:45:25;;;;;;;1.50;1.02;;;16.00;99.90;;;;;;5097519;28;20379;-75
2023/10/11 00:47:55;;;;;;;0.73;0.73;;;15.90;99.90;;;;;;5097493;28;20036;-74
2023/10/11 00:50:22;;;;;;;0.68;0.55;;;15.90;99.90;;;;;;5097480;28;20093;-74
2023/10/11 00:52:50;;;;;;;0.40;0.40;;;16.00;99.90;;;;;;5097488;28;20115;-74
2023/10/11 00:55:22;;;;;;;0.32;0.32;;;15.90;99.90;;;;;;5097746;28;20036;-77
2023/10/11 00:57:48;;;;;;;1.08;0.70;;;15.90;99.90;;;;;;5097497;28;20047;-76
2023/10/11 01:00:17;;;;;;;0.60;0.60;;;15.90;99.90;;;;;;5097332;28;20044;-76
2023/10/11 01:02:46;;;;;;;0.60;0.60;;;15.90;99.90;;;;;;5096205;28;20044;-75
2023/10/11 01:05:17;;;;;;;0.70;0.60;;;15.90;99.90;;;;;;5095927;28;20506;-76
2023/10/11 01:07:44;;;;;;;0.40;0.40;;;15.90;99.90;;;;;;5096985;28;20052;-76
2023/10/11 01:10:10;;;;;;;0.47;0.47;;;15.90;99.90;;;;;;5097490;28;20383;-76
2023/10/11 01:12:39;;;;;;;0.43;0.43;;;15.90;99.90;;;;;;5096278;28;20371;-75
2023/10/11 01:15:11;;;;;;;2.05;0.82;;;15.90;99.90;;;;;;5097000;28;20046;-76
2023/10/11 01:17:38;;;;;;;0.70;0.60;;;15.90;99.90;;;;;;5095857;28;20124;-74
2023/10/11 01:20:07;;;;;;;;;;;15.80;99.90;;;;;;5097377;28;20048;-76
2023/10/11 01:22:34;;;;;;;0.77;0.77;;;15.80;99.90;;;;;;5096903;28;19922;-76
2023/10/11 01:25:01;;;;;;;1.75;1.30;;;15.80;99.90;;;;;;5096760;28;20044;-74
2023/10/11 01:27:30;;;;;;;0.80;0.60;;;15.90;99.90;;;;;;5096690;28;20039;-75
2023/10/11 01:29:57;;;;;;;0.50;0.50;;;16.20;99.90;;;;;;5096694;28;20043;-76
2023/10/11 01:32:23;;;;;;;0.50;0.50;;;15.80;99.90;;;;;;5096681;28;20036;-76
2023/10/11 01:34:49;;;;;;;0.70;0.70;;;15.80;99.90;;;;;;5096596;28;20043;-77
2023/10/11 01:37:14;;;;;;;0.73;0.60;;;15.80;99.90;;;;;;5096451;28;20039;-76
2023/10/11 01:39:40;;;;;;;0.73;0.67;;;15.80;99.90;;;;;;5096490;28;20032;-74
2023/10/11 01:42:06;;;;;;;0.47;0.47;;;15.80;99.90;;;;;;5096522;28;20119;-74
2023/10/11 01:44:33;;;;;;;0.70;0.70;;;15.80;99.90;;;;;;5096432;28;20032;-75
2023/10/11 01:47:01;;;;;;;0.32;0.32;;;15.80;99.90;;;;;;5096398;28;20074;-75
2023/10/11 01:49:26;;;;;;;0.88;0.68;;;15.90;99.90;;;;;;5096456;28;20046;-75
2023/10/11 01:51:54;;;;;;;1.50;1.17;;;15.80;99.90;;;;;;5094400;28;20036;-76
2023/10/11 01:54:22;;;;;;;0.73;0.73;;;15.80;99.90;;;;;;5096417;28;20093;-76
2023/10/11 01:56:49;;;;;;;0.40;0.40;;;15.80;99.90;;;;;;5096166;28;20035;-75
2023/10/11 01:59:15;;;;;;;0.50;0.50;;;15.90;99.90;;;;;;5096154;28;20044;-75
2023/10/11 02:01:41;;;;;;;;;;;15.70;99.90;;;;;;5096588;28;20039;-75
2023/10/11 02:04:11;;;;;;;0.73;0.70;;;15.70;99.90;;;;;;5096082;28;20294;-77
2023/10/11 02:06:39;;;;;;;1.17;0.80;;;15.70;99.90;;;;;;5096365;28;20040;-76
2023/10/11 02:09:04;;;;;;;0.40;0.40;;;15.70;99.90;;;;;;5095809;28;20060;-76
2023/10/11 02:11:30;;;;;;;0.50;0.50;;;15.60;99.90;;;;;;5096068;28;20032;-75
2023/10/11 02:14:00;;;;;;;0.40;0.40;;;15.70;99.90;;;;;;5095790;28;20119;-75
2023/10/11 02:16:28;;;;;;;0.43;0.40;;;15.70;99.90;;;;;;5095600;28;20409;-75
2023/10/11 02:19:00;;;;;;;2.95;0.68;;;15.60;99.90;;;;;;5095715;28;20044;-75
2023/10/11 02:21:29;;;;;;;0.50;0.50;;;15.60;99.90;;;;;;5095798;28;20040;-75
2023/10/11 02:23:56;;;;;;;0.55;0.52;;;15.60;99.90;;;;;;5095757;28;20044;-75
2023/10/11 02:26:31;;;;;;;0.80;0.57;;;15.60;99.90;;;;;;5095641;28;20043;-74
2023/10/11 02:29:15;;;;;;;0.52;0.52;;;15.60;99.90;;;;;;5095579;28;20464;-76
2023/10/11 02:31:41;;;;;;;0.65;0.65;;;15.60;99.90;;;;;;5095712;28;20361;-75
2023/10/11 02:34:15;;;;;;;0.77;0.77;;;15.50;99.90;;;;;;5095484;28;20040;-74
2023/10/11 02:36:45;;;;;;;1.08;0.98;;;15.50;99.90;;;;;;5095554;28;20327;-74
2023/10/11 02:39:17;;;;;;;1.20;1.02;;;15.50;99.90;;;;;;5095363;28;20154;-75
2023/10/11 02:41:50;;;;;;;0.70;0.50;;;15.50;99.90;;;;;;5095351;28;20055;-74
2023/10/11 02:44:16;;;;;;;0.60;0.60;;;15.40;99.90;;;;;;5095277;28;20036;-76
2023/10/11 02:46:43;;;;;;;0.60;0.60;;;15.40;99.90;;;;;;5094340;28;20047;-75
2023/10/11 02:49:21;;;;;;;0.98;0.80;;;15.40;99.90;;;;;;5095297;28;20044;-74
2023/10/11 02:51:52;;;;;;;0.70;0.70;;;15.30;99.90;;;;;;5095223;28;20055;-75
2023/10/11 02:54:38;;;;;;;0.60;0.60;;;15.30;99.90;;;;;;5094745;28;20048;-74
2023/10/11 02:57:20;;;;;;;1.20;0.75;;;15.40;99.90;;;;;;5094919;28;20044;-76
2023/10/11 02:59:50;;;;;;;0.50;0.50;;;15.30;99.90;;;;;;5095095;28;20040;-74
2023/10/11 03:02:16;;;;;;;0.50;0.50;;;15.30;99.90;;;;;;5094060;28;20484;-75
2023/10/11 03:04:42;;;;;;;0.97;0.87;;;15.20;99.90;;;;;;5094426;28;20051;-75
2023/10/11 03:07:12;;;;;;;1.30;0.75;;;15.30;99.90;;;;;;5094728;28;20495;-75
2023/10/11 03:09:40;;;;;;;0.40;0.40;;;15.20;99.90;;;;;;5095180;28;20422;-77
2023/10/11 03:12:17;;;;;;;0.50;0.50;;;15.20;99.90;;;;;;5094832;28;20036;-75
2023/10/11 03:14:47;;;;;;;0.70;0.70;;;15.20;99.90;;;;;;5094598;28;20036;-76
2023/10/11 03:17:17;;;;;;;0.70;0.52;;;15.20;99.90;;;;;;5094589;28;20048;-74
2023/10/11 03:19:43;;;;;;;0.50;0.50;;;15.10;99.90;;;;;;5094254;28;20075;-75
2023/10/11 03:22:12;;;;;;;0.50;0.50;;;15.20;99.90;;;;;;5094606;28;20059;-75
2023/10/11 03:24:40;;;;;;;0.57;0.57;;;15.20;99.90;;;;;;5094472;28;20061;-74
2023/10/11 03:27:10;;;;;;;0.50;0.50;;;15.10;99.90;;;;;;5094124;28;20124;-74
2023/10/11 03:29:36;;;;;;;0.40;0.40;;;15.00;99.90;;;;;;5094748;28;20040;-75
2023/10/11 03:32:04;;;;;;;0.65;0.65;;;15.10;99.90;;;;;;5094292;28;20055;-74
2023/10/11 03:34:29;;;;;;;1.15;0.70;;;15.10;99.90;;;;;;5095035;28;20036;-75
2023/10/11 03:36:59;;;;;;;0.43;0.43;;;15.10;99.90;;;;;;5094467;28;20464;-76
2023/10/11 03:39:44;;;;;;;2.50;0.85;;;15.20;99.90;;;;;;5094205;28;20040;-75
2023/10/11 03:44:39;;;;;;;0.50;0.50;;;15.00;99.90;;;;;;5094034;28;20567;-76
2023/10/11 03:47:09;;;;;;;1.08;0.70;;;15.00;99.90;;;;;;5094396;28;20048;-76
2023/10/11 03:52:19;;;;;;;1.10;0.98;;;14.90;99.90;;;;;;5094134;28;20040;-75
2023/10/11 03:54:46;;;;;;;0.57;0.50;;;14.90;99.90;;;;;;5094757;28;20047;-75
2023/10/11 03:57:16;;;;;;;0.50;0.50;;;14.80;99.90;;;;;;5094326;28;20043;-75
2023/10/11 03:59:47;;;;;;;1.42;0.60;;;14.80;99.90;;;;;;5093826;28;20051;-75
2023/10/11 04:02:17;;;;;;;1.17;0.90;;;14.80;99.90;;;;;;5094176;28;20399;-77
2023/10/11 04:04:49;;;;;;;3.55;0.82;;;14.80;99.90;;;;;;5093670;28;20044;-75
2023/10/11 04:07:16;;;;;;;0.50;0.50;;;14.80;99.90;;;;;;5093827;28;20044;-74
2023/10/11 04:09:45;;;;;;;0.50;0.50;;;14.80;99.90;;;;;;5093880;28;20048;-76
2023/10/11 04:12:12;;;;;;;0.52;0.52;;;14.80;99.90;;;;;;5093745;28;20082;-75
2023/10/11 04:17:07;;;;;;;;;;;14.70;99.90;;;;;;5094304;28;20400;-75
2023/10/11 04:19:32;;;;;;;0.45;0.45;;;14.70;99.90;;;;;;5093728;28;19963;-75
2023/10/11 04:22:12;;;;;;;0.90;0.63;;;14.70;99.90;;;;;;5093455;28;20071;-75
2023/10/11 04:24:41;;;;;;;0.82;0.63;;;14.70;99.90;;;;;;5093928;28;20039;-75
2023/10/11 04:29:50;;;;;;;0.70;0.70;;;14.70;99.90;;;;;;5093707;28;20056;-74
2023/10/11 04:32:40;;;;;;;1.30;0.82;;;14.70;99.90;;;;;;5093696;28;20039;-76
2023/10/11 04:35:45;;;;;;;0.60;0.60;;;14.80;99.90;;;;;;5093311;28;20044;-74
2023/10/11 04:37:55;;;;;;;0.50;0.50;;;14.80;99.90;;;;;;5085197;28;20051;-75
2023/10/11 04:40:23;;;;;;;0.70;0.70;;;14.80;99.90;;;;;;5093566;28;20076;-75
2023/10/11 04:43:04;;;;;;;1.40;0.65;;;14.80;99.90;;;;;;5093527;28;20048;-75
2023/10/11 04:45:44;;;;;;;3.05;1.77;;;14.80;99.90;;;;;;5093482;28;20043;-75
2023/10/11 04:48:18;;;;;;;0.30;0.30;;;14.80;99.90;;;;;;5092389;28;20131;-75
2023/10/11 04:50:45;;;;;;;0.82;0.82;;;14.80;99.90;;;;;;5093322;28;20513;-76
2023/10/11 04:53:17;;;;;;;0.60;0.60;;;14.80;99.90;;;;;;5093518;28;20482;-76
2023/10/11 04:55:58;;;;;;;0.68;0.68;;;14.80;99.90;;;;;;5093740;28;20365;-76
2023/10/11 04:58:42;;;;;;;1.05;0.80;;;14.80;99.90;;;;;;5092420;28;20459;-76
2023/10/11 05:01:12;;;;;;;2.33;1.58;;;14.80;99.90;;;;;;5092146;28;20039;-76
2023/10/11 05:03:42;;;;;;;0.60;0.60;;;14.70;99.90;;;;;;5093225;28;20040;-79
2023/10/11 05:06:15;;;;;;;0.70;0.70;;;14.70;99.90;;;;;;5093331;28;20046;-74
2023/10/11 05:09:11;;;;;;;0.75;0.75;;;14.70;99.90;;;;;;5092945;28;20062;-73
2023/10/11 05:11:43;;;;;;;0.70;0.70;;;14.80;99.90;;;;;;5093304;28;20108;-72
2023/10/11 05:14:30;;;;;;;1.30;0.80;;;14.80;99.90;;;;;;5093000;28;20039;-72
2023/10/11 05:17:16;;;;;;;0.43;0.43;;;14.80;99.90;;;;;;5093308;28;20040;-73
2023/10/11 05:20:05;;;;;;;0.57;0.50;;;14.80;99.90;;;;;;5092022;28;20433;-72
2023/10/11 05:29:09;;;;;;;0.50;0.50;;;14.80;99.90;;;;;;5096730;28;20119;-73
2023/10/11 05:31:01;;;;;;;0.85;0.70;;;14.80;99.90;;;;;;5083172;28;20072;-71
2023/10/11 05:33:45;;;;;;;0.65;0.65;;;14.80;99.90;;;;;;5096757;28;20077;-71
2023/10/11 05:53:15;;;;;;;1.95;1.35;;;14.80;99.90;;;;;;5076026;28;20041;-76
2023/10/11 05:55:41;;;;;;;0.63;0.63;;;14.80;99.90;;;;;;5075872;28;20486;-74
2023/10/11 05:58:06;;;;;;;0.40;0.40;;;14.80;99.90;;;;;;5091516;28;20063;-74
2023/10/11 06:00:38;;;;;;;1.88;1.08;;;14.80;99.90;;;;;;5075824;28;20036;-75
2023/10/11 06:03:05;;;;;;;0.77;0.77;;;14.80;99.90;;;;;;5075942;28;20045;-80
2023/10/11 06:05:39;;;;;;;0.52;0.52;;;14.80;99.90;;;;;;5075771;28;20032;-80
2023/10/11 06:08:07;;;;;;;1.75;0.93;;;14.80;99.90;;;;;;5075667;28;20048;-78
2023/10/11 06:10:41;;;;;;;1.23;0.98;;;14.80;99.90;;;;;;5075819;28;20080;-80
2023/10/11 06:13:13;;;;;;;1.92;1.15;;;14.80;99.90;;;;;;5075858;28;20040;-79
2023/10/11 06:15:43;;;;;;;0.70;0.60;;;14.80;99.90;;;;;;5075552;28;20388;-75
2023/10/11 06:18:38;;;;;;;0.60;0.60;;;14.80;99.90;;;;;;5075012;28;20041;-76
2023/10/11 06:21:03;;;;;;;2.28;0.73;;;14.70;99.90;;;;;;5075362;28;20076;-75
2023/10/11 06:23:30;;;;;;;1.00;0.90;;;14.80;99.90;;;;;;5075436;28;20043;-75
2023/10/11 06:25:59;;;;;;;;;;;14.80;99.90;;;;;;5075534;28;20043;-76
2023/10/11 06:28:30;;;;;;;0.93;0.82;;;15.10;99.90;;;;;;5074315;28;19916;-77
2023/10/11 06:31:00;;;;;;;1.17;1.08;;;15.00;99.90;;;;;;5074698;28;20049;-77
2023/10/11 06:33:27;;;;;;;1.10;0.93;;;14.80;99.90;;;;;;5075264;28;20048;-77
2023/10/11 06:35:53;;;;;;;0.82;0.80;;;14.80;99.90;;;;;;5075291;28;20043;-77
2023/10/11 06:38:21;;;;;;;1.38;0.60;;;14.90;99.90;;;;;;5074932;28;20044;-77
2023/10/11 06:40:54;;;;;;;0.63;0.63;;;14.90;99.90;;;;;;5074197;28;20161;-77
2023/10/11 06:43:20;;;;;;;0.55;0.55;;;15.00;99.90;;;;;;5075165;28;20123;-77
2023/10/11 06:45:45;;;;;;;0.65;0.65;;;14.90;99.90;;;;;;5073817;28;20035;-77
2023/10/11 06:48:15;;;;;;;0.60;0.60;;;15.00;99.90;;;;;;5075004;28;20040;-76
2023/10/11 06:50:41;;;;;;;1.55;1.23;;;15.00;99.90;;;;;;5074931;28;20036;-75
2023/10/11 06:53:09;;;;;;;0.52;0.50;;;15.00;99.90;;;;;;5074907;28;20041;-75
2023/10/11 06:55:39;;;;;;;0.75;0.75;;;15.00;99.90;;;;;;5074745;28;20047;-75
2023/10/11 06:58:15;;;;;;;1.50;1.02;;;15.10;99.90;;;;;;5074694;28;20093;-75
2023/10/11 07:00:47;;;;;;;1.00;0.90;;;15.10;99.90;;;;;;5074649;28;20044;-75
2023/10/11 07:05:48;;;;;;;0.40;0.40;;;15.20;99.90;;;;;;5074735;28;20091;-75
2023/10/11 07:08:18;;;;;;;1.20;0.90;;;15.20;99.90;;;;;;5090138;28;20087;-75
2023/10/11 07:10:45;;;;;;;0.82;0.68;;;15.30;99.90;;;;;;5074573;28;20051;-76
2023/10/11 07:13:13;;;;;;;1.98;0.70;;;15.30;99.90;;;;;;5074482;28;20119;-73
2023/10/11 07:15:41;;;;;;;1.10;0.95;;;15.30;99.90;;;;;;5074495;28;20051;-75
2023/10/11 07:18:09;;;;;;;1.63;0.75;;;15.30;99.90;;;;;;5084880;28;20040;-75
2023/10/11 07:20:48;;;;;;;0.65;0.60;;;15.40;99.90;;;;;;5094650;28;20468;-76
2023/10/11 07:23:19;;;;;;;0.95;0.85;;;15.40;99.90;;;;;;5094678;28;20077;-75
2023/10/11 07:25:47;;;;;;;0.75;0.75;;;15.40;99.90;;;;;;5094485;28;20460;-75
2023/10/11 07:28:17;;;;;;;1.25;0.95;;;15.40;99.90;;;;;;5094982;28;20115;-75
2023/10/11 07:30:44;;;;;;;1.02;0.98;;;15.50;99.90;;;;;;5094318;28;20100;-75
2023/10/11 07:33:12;;;;;;;0.75;0.75;;;15.50;99.90;;;;;;5094460;28;20417;-73
2023/10/11 07:35:47;;;;;;;0.68;0.68;;;15.50;99.90;;;;;;5094132;28;20047;-75
2023/10/11 07:38:14;;;;;;;0.75;0.75;;;15.50;99.90;;;;;;5094383;28;20479;-74
2023/10/11 07:40:46;;;;;;;0.60;0.60;;;15.60;99.90;;;;;;5094609;28;20123;-74
2023/10/11 07:43:16;;;;;;;0.95;0.85;;;15.60;99.90;;;;;;5094320;28;20434;-75
2023/10/11 07:45:47;;;;;;;0.85;0.77;;;15.60;99.90;;;;;;5094099;28;20048;-75
2023/10/11 07:48:14;;;;;;;0.80;0.68;;;15.60;99.90;;;;;;5094118;28;20043;-73
2023/10/11 07:50:42;;;;;;;0.70;0.70;;;15.70;99.90;;;;;;5093824;28;20135;-75
2023/10/11 07:53:13;;;;;;;1.23;0.93;;;15.70;99.90;;;;;;5094108;28;20051;-74
2023/10/11 07:55:40;;;;;;;1.35;1.05;;;15.80;99.90;;;;;;5093334;28;20032;-73
2023/10/11 07:58:08;;;;;;;0.98;0.88;;;15.80;99.90;;;;;;5094023;28;20119;-75
2023/10/11 08:00:41;;;;;;;1.77;1.42;;;15.90;99.90;;;;;;5093948;28;20048;-74
2023/10/11 08:03:08;;;;;;;1.90;1.02;;;15.90;99.90;;;;;;5093956;28;20039;-75
2023/10/11 08:05:35;;;;;;;0.80;0.80;;;15.90;99.90;;;;;;5093507;28;20414;-75
2023/10/11 08:08:01;;;;;;;1.00;0.88;;;15.90;99.90;;;;;;5093980;28;20455;-73
2023/10/11 08:10:29;;;;;;;4.20;1.03;;;15.90;99.90;;;;;;5093869;28;20076;-75
2023/10/11 08:12:59;;;;;;;1.02;0.90;;;15.90;99.90;;;;;;5093818;28;20036;-75
2023/10/11 08:15:25;;;;;;;0.80;0.80;;;16.00;99.90;;;;;;5093896;28;20085;-76
2023/10/11 08:17:51;;;;;;;0.98;0.90;;;16.00;99.90;;;;;;5093779;28;20040;-75
2023/10/11 08:20:17;;;;;;;1.52;1.30;;;16.00;99.90;;;;;;5093842;28;20424;-73
2023/10/11 08:22:47;;;;;;;0.70;0.70;;;16.00;99.90;;;;;;5094211;28;20091;-74
2023/10/11 08:25:15;;;;;;;0.60;0.60;;;16.00;99.90;;;;;;5092089;28;20475;-74
2023/10/11 08:27:41;;;;;;;1.60;1.20;;;16.10;99.90;;;;;;5092986;28;20039;-75
2023/10/11 08:30:09;;;;;;;2.37;1.20;;;16.10;99.90;;;;;;5093249;28;20044;-76
2023/10/11 08:32:38;;;;;;;2.17;1.20;;;16.10;99.90;;;;;;5093484;28;20387;-76
2023/10/11 08:35:09;;;;;;;2.40;2.08;;;16.10;99.90;;;;;;5093317;28;20380;-76
2023/10/11 08:37:38;;;;;;;1.13;1.00;;;16.10;99.90;;;;;;5091960;28;20131;-76
2023/10/11 08:40:20;;;;;;;2.17;1.90;;;16.20;99.90;;;;;;5093221;28;20086;-76
2023/10/11 08:42:50;;;;;;;1.45;1.35;;;16.20;99.90;;;;;;5091412;28;20040;-77
2023/10/11 08:45:28;;;;;;;1.15;0.98;;;16.20;99.90;;;;;;5092106;28;20475;-77
2023/10/11 08:47:54;;;;;;;2.75;1.60;;;16.10;99.90;;;;;;5093442;28;20055;-75
2023/10/11 08:50:21;;;;;;;2.00;1.55;;;16.20;99.90;;;;;;5093347;28;20157;-75
2023/10/11 08:52:46;;;;;;;1.38;1.15;;;16.20;99.90;;;;;;5093125;28;20040;-75
2023/10/11 08:55:14;;;;;;;2.03;1.47;;;16.20;99.90;;;;;;5093145;28;20043;-74
2023/10/11 08:57:47;;;;;;;1.30;1.10;;;16.30;99.90;;;;;;5092903;28;20036;-75
2023/10/11 09:00:28;;;;;;;2.30;1.35;;;16.30;99.90;;;;;;5094203;28;20039;-73
2023/10/11 09:03:13;;;;;;;1.40;1.27;;;16.30;99.90;;;;;;5097137;28;20044;-75
2023/10/11 09:05:42;;;;;;;4.05;1.42;;;16.30;99.90;;;;;;5097022;28;20525;-80
2023/10/11 09:08:26;;;;;;;1.48;1.23;;;16.30;99.90;;;;;;5095426;28;20469;-77
2023/10/11 09:10:51;;;;;;;0.77;0.77;;;16.30;99.90;;;;;;5095699;28;20044;-76
2023/10/11 09:13:26;;;;;;;1.87;1.60;;;16.30;99.90;;;;;;5096993;28;20125;-78
2023/10/11 09:15:56;;;;;;;1.42;1.30;;;16.30;99.90;;;;;;5096867;28;20032;-75
2023/10/11 09:18:25;;;;;;;1.10;1.00;;;16.30;99.90;;;;;;5095245;28;20620;-77
2023/10/11 09:21:07;;;;;;;1.60;0.80;;;16.30;99.90;;;;;;5096944;28;20169;-76
2023/10/11 09:23:38;;;;;;;1.85;1.50;;;16.40;99.90;;;;;;5096619;28;20499;-76
2023/10/11 09:26:05;;;;;;;1.27;1.10;;;16.30;99.90;;;;;;5096652;28;20123;-78
2023/10/11 09:28:40;;;;;;;1.95;1.55;;;16.30;99.90;;;;;;5096762;28;20036;-76
2023/10/11 09:31:20;;;;;;;2.13;1.33;;;16.30;99.90;;;;;;5096517;28;20080;-73
2023/10/11 09:33:51;;;;;;;1.58;1.48;;;16.20;99.90;;;;;;5096551;28;20554;-77
2023/10/11 09:36:22;;;;;;;0.85;0.85;;;16.50;99.90;;;;;;5095643;28;20123;-76
2023/10/11 09:38:54;;;;;;;2.78;1.45;;;16.40;99.90;;;;;;5096688;28;20050;-76
2023/10/11 09:41:24;;;;;;;1.55;1.45;;;16.30;99.90;;;;;;5096294;28;20479;-77
2023/10/11 09:43:56;;;;;;;2.97;1.42;;;16.40;99.90;;;;;;5096325;28;20118;-76
2023/10/11 09:46:29;;;;;;;2.03;1.17;;;16.30;99.90;;;;;;5096343;28;20040;-76
2023/10/11 09:49:02;;;;;;;1.70;1.30;;;16.30;99.90;;;;;;5096539;28;20425;-76
2023/10/11 09:51:29;;;;;;;0.88;0.85;;;16.30;99.90;;;;;;5096202;28;20046;-75
2023/10/11 09:54:07;;;;;;;1.02;0.63;;;16.30;99.90;;;;;;5094717;28;20128;-75
2023/10/11 09:56:45;;;;;;;1.92;1.05;;;16.30;99.90;;;;;;5096534;28;20122;-78
2023/10/11 09:59:22;;;;;;;;;;;16.30;99.90;;;;;;5096762;28;20136;-76
2023/10/11 10:01:56;;;;;;;1.33;1.23;;;16.30;99.90;;;;;;5088287;28;20003;-79
2023/10/11 10:05:04;;;;;;;1.27;0.98;;;16.30;99.90;;;;;;5075780;28;20387;-76
2023/10/11 10:10:07;;;;;;;2.08;1.42;;;16.30;99.90;;;;;;5053800;28;20423;-76
2023/10/11 10:12:33;;;;;;;1.40;1.30;;;16.40;99.90;;;;;;5065104;28;20101;-76
2023/10/11 10:15:13;;;;;;;1.48;1.33;;;16.30;99.90;;;;;;5075343;28;20053;-76
2023/10/11 10:18:01;;;;;;;1.10;0.93;;;16.40;99.90;;;;;;5075061;28;20052;-75
2023/10/11 10:20:33;;;;;;;1.63;1.52;;;16.40;99.90;;;;;;5085585;28;20045;-73
2023/10/11 10:23:22;;;;;;;0.63;0.63;;;16.40;99.90;;;;;;5075136;28;20055;-75
2023/10/11 10:26:06;;;;;;;2.55;1.17;;;16.40;99.90;;;;;;5074836;28;20040;-75
2023/10/11 10:28:45;;;;;;;7.95;1.27;;;16.40;99.90;;;;;;5074236;28;20067;-74
2023/10/11 10:31:21;;;;;;;1.70;0.73;;;16.40;99.90;;;;;;5075522;28;20399;-73
2023/10/11 10:34:24;;;;;;;2.60;1.88;;;16.50;99.90;;;;;;5075334;28;20379;-76
2023/10/11 10:36:50;;;;;;;1.10;0.80;;;16.50;99.90;;;;;;5075296;28;20036;-76
2023/10/11 10:42:03;;;;;;;1.20;1.00;;;16.60;99.90;;;;;;5075179;28;20048;-75
2023/10/11 10:44:31;;;;;;;1.15;0.95;;;16.60;99.90;;;;;;5074893;28;20033;-75
2023/10/11 10:46:59;;;;;;;4.57;1.77;;;16.80;99.90;;;;;;5075008;28;20052;-75
2023/10/11 10:49:47;;;;;;;0.70;0.70;;;16.80;99.90;;;;;;5074938;28;20056;-76
2023/10/11 10:52:21;;;;;;;1.33;1.23;;;16.90;99.90;;;;;;5075016;28;20045;-78
2023/10/11 10:55:02;;;;;;;0.77;0.77;;;16.90;99.90;;;;;;5075214;28;20349;-73
2023/10/11 10:57:38;;;;;;;2.72;1.58;;;17.10;99.90;;;;;;5074763;28;20047;-78
2023/10/11 11:00:07;;;;;;;1.27;0.90;;;17.10;99.90;;;;;;5073733;28;20395;-74
2023/10/11 11:02:35;;;;;;;1.60;1.15;;;17.20;99.90;;;;;;5074869;28;20388;-74
2023/10/11 11:05:01;;;;;;;1.58;1.13;;;17.30;99.90;;;;;;5074663;28;20032;-77
2023/10/11 11:07:27;;;;;;;1.83;1.40;;;17.40;99.90;;;;;;5074476;28;20070;-74
2023/10/11 11:09:57;;;;;;;4.43;1.20;;;17.50;99.90;;;;;;5074452;28;20090;-75
2023/10/11 11:12:29;;;;;;;1.08;0.98;;;17.60;99.90;;;;;;5074552;28;20048;-75
2023/10/11 11:14:58;;;;;;;0.40;0.40;;;17.70;99.90;;;;;;5074489;28;20120;-75
2023/10/11 11:17:26;;;;;;;1.17;1.08;;;17.80;99.90;;;;;;5073281;28;20033;-75
2023/10/11 11:20:12;;;;;;;0.90;0.60;;;17.80;99.90;;;;;;5074038;28;20381;-74
2023/10/11 11:22:38;;;;;;;0.43;0.43;;;17.90;99.90;;;;;;5074320;28;20043;-75
2023/10/11 11:28:05;;;;;;;1.05;1.00;;;18.00;99.90;;;;;;5073989;28;20048;-77
2023/10/11 11:30:35;;;;;;;0.63;0.60;;;18.10;99.90;;;;;;5074199;28;20090;-71
2023/10/11 11:33:10;;;;;;;0.63;0.63;;;18.30;99.90;;;;;;5074563;28;20071;-78
2023/10/11 11:35:52;;;;;;;1.77;1.48;;;18.30;99.90;;;;;;5074260;28;20452;-80
2023/10/11 11:38:21;;;;;;;0.60;0.60;;;18.40;99.90;;;;;;5073764;28;20484;-81
2023/10/11 11:40:59;;;;;;;1.00;0.90;;;18.40;99.90;;;;;;5074532;28;20087;-79
2023/10/11 11:43:32;;;;;;;0.98;0.90;;;18.50;99.90;;;;;;5074364;28;20182;-74
2023/10/11 11:46:01;;;;;;;2.92;1.27;;;18.50;99.90;;;;;;5072896;28;20380;-74
2023/10/11 11:48:28;;;;;;;0.90;0.90;;;18.50;99.90;;;;;;5072919;28;20469;-75
2023/10/11 11:50:57;;;;;;;0.65;0.65;;;18.50;99.90;;;;;;5073789;28;20040;-74
2023/10/11 11:53:23;;;;;;;2.10;1.38;;;18.50;99.90;;;;;;5073718;28;20044;-75
2023/10/11 11:55:49;;;;;;;0.60;0.60;;;18.40;99.90;;;;;;5073810;28;20034;-75
2023/10/11 11:58:17;;;;;;;2.70;1.25;;;18.40;99.90;;;;;;5073902;28;20133;-75
2023/10/11 12:00:59;;;;;;;4.95;0.80;;;18.40;99.90;;;;;;5073543;28;20036;-75
2023/10/11 12:03:25;;;;;;;0.40;0.40;;;18.40;99.90;;;;;;5073796;28;20068;-75
2023/10/11 12:05:52;;;;;;;0.43;0.43;;;18.40;99.90;;;;;;5073269;28;20072;-76
2023/10/11 12:08:20;;;;;;;0.47;0.47;;;18.40;99.90;;;;;;5073932;28;20052;-76
2023/10/11 12:10:54;;;;;;;0.50;0.50;;;18.40;99.90;;;;;;5073572;28;20472;-77
2023/10/11 12:13:23;;;;;;;0.45;0.45;;;18.50;99.90;;;;;;5073781;28;20135;-75
2023/10/11 12:15:54;;;;;;;0.60;0.60;;;18.60;99.90;;;;;;5072574;28;20541;-78
2023/10/11 12:18:32;;;;;;;0.77;0.77;;;18.60;99.90;;;;;;5073555;28;20048;-75
2023/10/11 12:20:58;;;;;;;0.60;0.60;;;18.70;99.90;;;;;;5073974;28;20040;-77
2023/10/11 12:23:24;;;;;;;0.73;0.55;;;18.80;99.90;;;;;;5073510;28;20045;-76
2023/10/11 12:25:49;;;;;;;0.47;0.47;;;18.90;99.90;;;;;;5073335;28;20055;-77
2023/10/11 12:28:15;;;;;;;0.90;0.47;;;18.90;99.90;;;;;;5073470;28;20037;-77
2023/10/11 12:30:44;;;;;;;0.90;0.87;;;19.00;99.90;;;;;;5073440;28;20487;-76
2023/10/11 12:33:10;;;;;;;0.45;0.45;;;19.00;99.90;;;;;;5073325;28;20044;-73
2023/10/11 12:35:40;;;;;;;0.73;0.60;;;19.10;99.90;;;;;;5075385;28;20089;-73
2023/10/11 12:38:12;;;;;;;1.13;0.90;;;19.00;99.90;;;;;;5088576;28;20476;-73
2023/10/11 12:40:41;;;;;;;0.65;0.65;;;19.10;99.90;;;;;;5094230;28;20032;-73
2023/10/11 12:43:09;;;;;;;1.23;1.13;;;19.20;99.90;;;;;;5091680;28;20044;-72
2023/10/11 12:45:36;;;;;;;0.40;0.40;;;19.30;99.90;;;;;;5096934;28;20039;-73
2023/10/11 12:48:10;;;;;;;1.33;0.70;;;19.40;99.90;;;;;;5097130;28;20044;-73
2023/10/11 12:50:36;;;;;;;0.43;0.43;;;19.50;99.90;;;;;;5096795;28;20055;-73
2023/10/11 12:53:12;;;;;;;1.02;0.70;;;19.50;99.90;;;;;;5097806;28;20071;-73
2023/10/11 12:55:43;;;;;;;0.70;0.65;;;19.60;99.90;;;;;;5097570;28;20055;-72
2023/10/11 12:58:13;;;;;;;0.70;0.70;;;19.60;99.90;;;;;;5097162;28;20476;-74
2023/10/11 13:00:51;;;;;;;2.17;0.80;;;19.60;99.90;;;;;;5097027;28;20491;-75
2023/10/11 13:03:29;;;;;;;0.73;0.57;;;19.60;99.90;;;;;;5097672;28;20122;-74
2023/10/11 13:05:55;;;;;;;16.98;0.85;;;19.70;99.90;;;;;;5097153;28;20036;-73
2023/10/11 13:08:26;;;;;;;0.38;0.38;;;19.60;99.90;;;;;;5097151;28;20131;-75
2023/10/11 13:10:53;;;;;;;0.68;0.65;;;19.60;99.90;;;;;;5097612;28;20445;-72
2023/10/11 13:13:21;;;;;;;0.50;0.50;;;19.70;99.90;;;;;;5097092;28;20100;-73
2023/10/11 13:16:01;;;;;;;0.40;0.40;;;19.70;99.90;;;;;;5096028;28;20036;-74
2023/10/11 13:18:52;;;;;;;1.30;0.93;;;19.60;99.90;;;;;;5096745;28;20468;-74
2023/10/11 13:21:23;;;;;;;1.27;0.80;;;19.60;99.90;;;;;;5092136;28;20051;-74
2023/10/11 13:23:49;;;;;;;0.80;0.80;;;19.60;99.90;;;;;;5097197;28;20040;-73
2023/10/11 13:26:18;;;;;;;1.07;0.83;;;19.60;99.90;;;;;;5097132;28;20035;-74
2023/10/11 13:28:48;;;;;;;0.30;0.30;;;19.50;99.90;;;;;;5096735;28;20046;-73
2023/10/11 13:31:15;;;;;;;1.00;0.85;;;19.40;99.90;;;;;;5096628;28;20498;-73
2023/10/11 13:33:42;;;;;;;0.43;0.43;;;19.40;99.90;;;;;;5096683;28;20048;-73
2023/10/11 13:36:08;;;;;;;0.47;0.47;;;19.40;99.90;;;;;;5097015;28;20105;-74
2023/10/11 13:38:34;;;;;;;10.30;1.20;;;19.30;99.90;;;;;;5096629;28;20040;-73
2023/10/11 13:41:00;;;;;;;0.65;0.65;;;19.30;99.90;;;;;;5094521;28;20069;-73
2023/10/11 13:43:26;;;;;;;0.67;0.67;;;19.30;99.90;;;;;;5096236;28;20047;-73
2023/10/11 13:46:01;;;;;;;1.15;0.88;;;19.30;99.90;;;;;;5095837;28;20044;-73
2023/10/11 13:48:33;;;;;;;0.50;0.50;;;19.30;99.90;;;;;;5095549;28;20040;-73
2023/10/11 13:51:03;;;;;;;1.60;1.05;;;19.30;99.90;;;;;;5096649;28;20076;-76
2023/10/11 13:53:30;;;;;;;0.88;0.60;;;19.30;99.90;;;;;;5096196;28;20076;-75